createdAt,value
2022-10-13T00:02:29.769Z,7.43
2022-10-13T00:06:32.119Z,7.42
2022-10-13T00:10:35.981Z,7.39
2022-10-13T00:14:37.302Z,7.39
2022-10-13T00:18:38.570Z,7.39
2022-10-13T00:22:59.573Z,7.38
2022-10-13T00:27:00.808Z,7.31
2022-10-13T00:31:02.099Z,7.31
2022-10-13T00:35:03.471Z,7.26
2022-10-13T00:39:05.331Z,7.22
2022-10-13T00:43:14.328Z,7.13
2022-10-13T00:47:15.660Z,7.08
2022-10-13T00:51:19.088Z,7.04
2022-10-13T00:55:22.298Z,6.95
2022-10-13T00:59:27.252Z,6.90
2022-10-13T01:03:28.596Z,6.85
2022-10-13T01:07:30.500Z,6.81
2022-10-13T01:11:51.171Z,6.79
2022-10-13T01:15:57.493Z,6.80
2022-10-13T01:20:10.978Z,6.75
2022-10-13T01:24:24.425Z,6.78
2022-10-13T01:28:34.976Z,6.70
2022-10-13T01:32:55.113Z,6.72
2022-10-13T01:37:00.412Z,6.82
2022-10-13T01:41:12.957Z,6.87
2022-10-13T01:45:16.407Z,6.97
2022-10-13T01:49:19.225Z,7.00
2022-10-13T01:53:21.747Z,7.11
2022-10-13T01:57:35.188Z,7.17
2022-10-13T02:01:59.864Z,7.20
2022-10-13T02:06:16.036Z,7.28
2022-10-13T02:10:28.341Z,7.37
2022-10-13T02:14:30.840Z,7.39
2022-10-13T02:18:34.244Z,7.39
2022-10-13T02:22:38.315Z,7.39
2022-10-13T02:26:40.888Z,7.40
2022-10-13T02:30:42.657Z,7.28
2022-10-13T02:34:44.182Z,7.26
2022-10-13T02:38:45.472Z,7.25
2022-10-13T02:42:47.226Z,7.20
2022-10-13T02:46:48.561Z,7.18
2022-10-13T02:50:49.892Z,7.10
2022-10-13T02:54:51.683Z,7.05
2022-10-13T02:58:53.002Z,7.05
2022-10-13T03:02:54.257Z,7.07
2022-10-13T03:06:55.536Z,7.03
2022-10-13T03:10:57.401Z,7.01
2022-10-13T03:14:58.952Z,7.04
2022-10-13T03:19:00.204Z,7.04
2022-10-13T03:23:01.500Z,7.04
2022-10-13T03:27:02.840Z,7.06
2022-10-13T03:31:05.270Z,7.07
2022-10-13T03:35:06.949Z,7.07
2022-10-13T03:39:08.207Z,7.08
2022-10-13T03:43:09.480Z,7.09
2022-10-13T03:47:11.128Z,7.06
2022-10-13T03:51:14.903Z,7.08
2022-10-13T03:55:16.244Z,7.10
2022-10-13T03:59:18.489Z,7.14
2022-10-13T04:03:20.054Z,7.19
2022-10-13T04:07:21.359Z,7.21
2022-10-13T04:11:23.045Z,7.20
2022-10-13T04:15:24.424Z,7.25
2022-10-13T04:19:26.774Z,7.26
2022-10-13T04:23:28.011Z,7.27
2022-10-13T04:27:30.476Z,7.28
2022-10-13T04:31:32.081Z,7.27
2022-10-13T04:35:33.778Z,7.32
2022-10-13T04:39:35.122Z,7.36
2022-10-13T04:43:36.541Z,7.34
2022-10-13T04:47:39.519Z,7.42
2022-10-13T04:51:40.785Z,7.48
2022-10-13T04:55:42.032Z,7.57
2022-10-13T04:59:43.292Z,7.62
2022-10-13T05:03:44.896Z,7.71
2022-10-13T05:07:46.196Z,7.77
2022-10-13T05:11:47.556Z,7.82
2022-10-13T05:15:49.014Z,7.86
2022-10-13T05:19:50.264Z,7.89
2022-10-13T05:23:56.516Z,7.96
2022-10-13T05:27:57.849Z,7.98
2022-10-13T05:31:59.178Z,8.06
2022-10-13T05:36:19.417Z,8.08
2022-10-13T05:40:21.356Z,8.07
2022-10-13T05:44:22.697Z,8.09
2022-10-13T05:48:23.972Z,8.11
2022-10-13T05:52:25.840Z,8.12
2022-10-13T05:56:30.269Z,8.15
2022-10-13T06:00:31.561Z,8.15
2022-10-13T06:04:39.668Z,8.19
2022-10-13T06:08:42.598Z,8.22
2022-10-13T06:12:44.104Z,8.27
2022-10-13T06:16:45.347Z,8.34
2022-10-13T06:20:47.063Z,8.41
2022-10-13T06:24:48.290Z,8.43
2022-10-13T06:28:51.732Z,8.45
2022-10-13T06:32:57.588Z,8.52
2022-10-13T06:36:59.488Z,8.59
2022-10-13T06:41:01.921Z,8.63
2022-10-13T06:45:03.309Z,8.67
2022-10-13T06:49:04.594Z,8.71
2022-10-13T06:53:05.921Z,8.74
2022-10-13T06:57:07.189Z,8.80
2022-10-13T07:01:11.920Z,8.85
2022-10-13T07:05:13.204Z,8.93
2022-10-13T07:09:14.695Z,9.01
2022-10-13T07:13:16.053Z,9.08
2022-10-13T07:17:18.248Z,9.17
2022-10-13T07:21:19.890Z,9.24
2022-10-13T07:25:21.168Z,9.33
2022-10-13T07:29:22.432Z,9.49
2022-10-13T07:33:24.014Z,9.61
2022-10-13T07:37:26.147Z,9.74
2022-10-13T07:41:27.848Z,9.86
2022-10-13T07:45:29.188Z,9.99
2022-10-13T07:49:30.502Z,10.10
2022-10-13T07:53:31.869Z,10.20
2022-10-13T07:57:33.256Z,10.29
2022-10-13T08:01:34.591Z,10.36
2022-10-13T08:05:39.251Z,10.37
2022-10-13T08:09:40.548Z,10.51
2022-10-13T08:13:42.061Z,10.63
2022-10-13T08:17:43.337Z,10.79
2022-10-13T08:21:58.124Z,10.96
2022-10-13T08:25:59.812Z,11.09
2022-10-13T08:30:01.790Z,11.23
2022-10-13T08:34:03.124Z,11.36
2022-10-13T08:38:05.065Z,11.46
2022-10-13T08:42:20.122Z,11.56
2022-10-13T08:46:44.529Z,11.57
2022-10-13T08:50:47.558Z,11.57
2022-10-13T08:54:49.367Z,11.56
2022-10-13T08:58:51.497Z,11.55
2022-10-13T09:02:52.898Z,11.58
2022-10-13T09:06:56.184Z,11.60
2022-10-13T09:10:57.509Z,11.68
2022-10-13T09:15:01.802Z,11.79
2022-10-13T09:19:21.793Z,11.85
2022-10-13T09:23:23.087Z,11.88
2022-10-13T09:27:24.394Z,11.97
2022-10-13T09:31:27.319Z,12.08
2022-10-13T09:35:29.011Z,12.16
2022-10-13T09:39:31.388Z,12.24
2022-10-13T09:43:42.283Z,12.32
2022-10-13T09:47:51.951Z,12.43
2022-10-13T09:51:59.113Z,12.53
2022-10-13T09:56:19.171Z,12.67
2022-10-13T10:00:24.881Z,12.81
2022-10-13T10:04:29.954Z,12.87
2022-10-13T10:09:01.382Z,12.94
2022-10-13T10:13:03.007Z,13.04
2022-10-13T10:17:23.257Z,13.11
2022-10-13T10:21:30.849Z,13.28
2022-10-13T10:25:46.944Z,13.39
2022-10-13T10:30:01.987Z,13.46
2022-10-13T10:34:14.841Z,13.48
2022-10-13T10:38:35.528Z,13.52
2022-10-13T10:42:57.081Z,13.71
2022-10-13T10:47:04.437Z,13.95
2022-10-13T10:51:10.500Z,14.07
2022-10-13T10:55:18.092Z,14.12
2022-10-13T10:59:22.337Z,14.23
2022-10-13T11:03:47.882Z,14.35
2022-10-13T11:07:52.109Z,14.40
2022-10-13T11:11:53.382Z,14.44
2022-10-13T11:15:55.522Z,14.51
2022-10-13T11:19:57.862Z,14.62
2022-10-13T11:24:02.029Z,14.71
2022-10-13T11:28:27.298Z,14.77
2022-10-13T11:32:42.005Z,14.81
2022-10-13T11:36:48.344Z,14.84
2022-10-13T11:41:15.831Z,14.90
2022-10-13T11:45:29.310Z,15.04
2022-10-13T11:49:39.755Z,15.22
2022-10-13T11:53:50.188Z,15.31
2022-10-13T11:57:51.597Z,15.41
2022-10-13T12:02:11.218Z,15.52
2022-10-13T12:06:21.915Z,15.59
2022-10-13T12:10:33.748Z,15.64
2022-10-13T12:14:40.416Z,15.68
2022-10-13T12:18:41.764Z,15.81
2022-10-13T12:22:49.952Z,15.89
2022-10-13T12:26:51.835Z,15.94
2022-10-13T12:30:54.553Z,16.00
2022-10-13T12:34:56.382Z,15.98
2022-10-13T12:39:02.691Z,16.01
2022-10-13T12:43:05.246Z,16.01
2022-10-13T12:47:26.743Z,16.08
2022-10-13T12:51:28.094Z,15.95
2022-10-13T12:55:29.698Z,15.92
2022-10-13T12:59:31.619Z,15.82
2022-10-13T13:03:33.505Z,15.68
2022-10-13T13:07:37.089Z,15.62
2022-10-13T13:11:39.058Z,15.63
2022-10-13T13:15:41.629Z,15.69
2022-10-13T13:19:44.695Z,15.73
2022-10-13T13:23:51.217Z,15.79
2022-10-13T13:27:55.424Z,15.74
2022-10-13T13:31:56.772Z,15.64
2022-10-13T13:35:58.113Z,15.57
2022-10-13T13:39:59.442Z,15.55
2022-10-13T13:44:01.047Z,15.60
2022-10-13T13:48:02.353Z,15.70
2022-10-13T13:52:03.645Z,15.74
2022-10-13T13:56:05.123Z,15.81
2022-10-13T14:00:06.853Z,15.87
2022-10-13T14:04:08.110Z,15.93
2022-10-13T14:08:09.728Z,15.99
2022-10-13T14:12:11.415Z,16.00
2022-10-13T14:16:15.785Z,15.95
2022-10-13T14:20:17.401Z,15.90
2022-10-13T14:24:19.042Z,15.82
2022-10-13T14:28:20.390Z,15.71
2022-10-13T14:32:22.093Z,15.61
2022-10-13T14:36:23.839Z,15.52
2022-10-13T14:40:25.125Z,15.44
2022-10-13T14:44:26.476Z,15.42
2022-10-13T14:48:27.788Z,15.41
2022-10-13T14:52:29.098Z,15.33
2022-10-13T14:56:30.492Z,15.25
2022-10-13T15:00:31.754Z,15.22
2022-10-13T15:04:33.437Z,15.18
2022-10-13T15:08:34.773Z,15.20
2022-10-13T15:12:36.708Z,15.14
2022-10-13T15:16:38.346Z,15.10
2022-10-13T15:20:39.662Z,15.07
2022-10-13T15:24:40.957Z,15.05
2022-10-13T15:28:47.027Z,15.04
2022-10-13T15:32:48.724Z,15.03
2022-10-13T15:36:50.389Z,14.98
2022-10-13T15:40:51.697Z,14.93
2022-10-13T15:45:10.272Z,14.90
2022-10-13T15:49:12.231Z,14.87
2022-10-13T15:53:14.016Z,14.81
2022-10-13T15:57:15.331Z,14.74
2022-10-13T16:01:16.707Z,14.72
2022-10-13T16:05:18.356Z,14.66
2022-10-13T16:09:19.649Z,14.62
2022-10-13T16:13:20.888Z,14.56
2022-10-13T16:17:22.560Z,14.52
2022-10-13T16:21:25.775Z,14.49
2022-10-13T16:25:27.104Z,14.45
2022-10-13T16:29:28.373Z,14.41
2022-10-13T16:33:29.642Z,14.39
2022-10-13T16:37:31.045Z,14.35
2022-10-13T16:41:32.352Z,14.35
2022-10-13T16:45:55.004Z,14.35
2022-10-13T16:49:55.329Z,14.28
2022-10-13T16:54:02.976Z,14.25
2022-10-13T16:58:05.631Z,14.23
2022-10-13T17:02:06.915Z,14.21
2022-10-13T17:06:08.692Z,14.19
2022-10-13T17:10:10.053Z,14.19
2022-10-13T17:14:11.621Z,14.16
2022-10-13T17:18:12.850Z,14.12
2022-10-13T17:22:14.372Z,14.12
2022-10-13T17:26:16.864Z,14.11
2022-10-13T17:30:18.185Z,14.11
2022-10-13T17:34:19.542Z,14.11
2022-10-13T17:38:21.248Z,14.09
2022-10-13T17:42:22.497Z,14.06
2022-10-13T17:46:40.607Z,14.05
2022-10-13T17:50:41.929Z,14.01
2022-10-13T17:54:43.756Z,13.98
2022-10-13T17:58:45.383Z,13.96
2022-10-13T18:02:47.443Z,13.94
2022-10-13T18:06:48.829Z,13.93
2022-10-13T18:11:07.795Z,13.91
2022-10-13T18:15:09.845Z,13.90
2022-10-13T18:19:11.143Z,13.88
2022-10-13T18:23:12.393Z,13.87
2022-10-13T18:27:13.713Z,13.84
2022-10-13T18:31:18.100Z,13.81
2022-10-13T18:35:19.414Z,13.78
2022-10-13T18:39:22.665Z,13.76
2022-10-13T18:43:24.693Z,13.72
2022-10-13T18:47:25.924Z,13.68
2022-10-13T18:51:33.420Z,13.61
2022-10-13T18:55:37.204Z,13.59
2022-10-13T18:59:39.029Z,13.59
2022-10-13T19:03:40.843Z,13.54
2022-10-13T19:07:42.309Z,13.49
2022-10-13T19:11:43.726Z,13.43
2022-10-13T19:15:45.342Z,13.37
2022-10-13T19:19:46.618Z,13.34
2022-10-13T19:23:48.546Z,13.31
2022-10-13T19:27:49.814Z,13.29
2022-10-13T19:31:51.816Z,13.30
2022-10-13T19:35:53.907Z,13.27
2022-10-13T19:39:55.544Z,13.28
2022-10-13T19:43:57.974Z,13.25
2022-10-13T19:47:59.300Z,13.23
2022-10-13T19:52:00.540Z,13.19
2022-10-13T19:56:01.824Z,13.14
2022-10-13T20:00:03.949Z,13.10
2022-10-13T20:04:05.885Z,13.06
2022-10-13T20:08:08.681Z,13.04
2022-10-13T20:12:09.990Z,12.96
2022-10-13T20:16:13.414Z,12.89
2022-10-13T20:20:17.758Z,12.83
2022-10-13T20:24:23.722Z,12.78
2022-10-13T20:28:25.176Z,12.75
2022-10-13T20:32:26.487Z,12.70
2022-10-13T20:36:28.765Z,12.66
2022-10-13T20:40:30.016Z,12.63
2022-10-13T20:44:31.356Z,12.60
2022-10-13T20:48:45.552Z,12.59
2022-10-13T20:52:54.625Z,12.59
2022-10-13T20:56:56.083Z,12.56
2022-10-13T21:00:57.667Z,12.55
2022-10-13T21:04:58.980Z,12.58
2022-10-13T21:09:00.508Z,12.61
2022-10-13T21:13:01.777Z,12.61
2022-10-13T21:17:03.094Z,12.62
2022-10-13T21:21:05.732Z,12.61
2022-10-13T21:25:07.270Z,12.61
2022-10-13T21:29:08.561Z,12.61
2022-10-13T21:33:09.979Z,12.63
2022-10-13T21:37:11.449Z,12.62
2022-10-13T21:41:13.724Z,12.65
2022-10-13T21:45:15.000Z,12.68
2022-10-13T21:49:16.436Z,12.67
2022-10-13T21:53:17.703Z,12.66
2022-10-13T21:57:20.022Z,12.66
2022-10-13T22:01:22.171Z,12.66
2022-10-13T22:05:25.180Z,12.66
2022-10-13T22:09:27.111Z,12.68
2022-10-13T22:13:28.895Z,12.71
2022-10-13T22:17:30.233Z,12.76
2022-10-13T22:21:34.137Z,12.77
2022-10-13T22:25:35.396Z,12.79
2022-10-13T22:29:36.850Z,12.82
2022-10-13T22:33:39.154Z,12.83
2022-10-13T22:37:40.811Z,12.85
2022-10-13T22:41:42.359Z,12.85
2022-10-13T22:45:52.996Z,12.83
2022-10-13T22:49:54.312Z,12.83
2022-10-13T22:53:56.632Z,12.83
2022-10-13T22:57:59.163Z,12.85
2022-10-13T23:02:00.529Z,12.86
2022-10-13T23:06:02.433Z,12.88
2022-10-13T23:10:06.393Z,12.89
2022-10-13T23:14:08.852Z,12.90
2022-10-13T23:18:10.232Z,12.91
2022-10-13T23:22:11.457Z,12.89
2022-10-13T23:26:14.729Z,12.91
2022-10-13T23:30:16.052Z,12.89
2022-10-13T23:34:17.628Z,12.87
2022-10-13T23:38:19.033Z,12.85
2022-10-13T23:42:20.328Z,12.81
2022-10-13T23:46:21.687Z,12.79
2022-10-13T23:50:23.148Z,12.78
2022-10-13T23:54:24.569Z,12.79
2022-10-13T23:58:25.836Z,12.80
